Lake Ozark, MO (65049)

7:51 PM CST on February 06, 2016 (GMT -0600)
Four Seasons, Lake Ozark | | Change Station
CLOSE
Current Station
Personal Weather Station
Location: Lake Ozark, MO
Elevation: 760 ft
Nearby Weather Stations

Elev 760 ft 38.22 °N, 92.71 °W | Updated 15 seconds ago

Clear
Clear
47.3 °F
Feels Like 46 °F
N
3.3
Wind Variable Wind from WSW
Gusts 3.3 mph

Today
High -- | Low -- °F
--% Chance of Precip.
Yesterday
High -- | Low -- °F
Precip. -- in
Pressure 30.20 in
Visibility 10.0 miles
Clouds Clear
Windchill 46 °F
Dew Point 32 °F
Humidity 56%
Rainfall 0.00 in
Snow Depth Not available.
7:11 AM 5:38 PM
Waning Crescent, 3% visible
METAR KAIZ 070135Z AUTO 22005KT 10SM CLR 07/M03 A3020 RMK AO1
Pressure 30.20 in
Visibility 10.0 miles
Clouds Clear
Windchill 46 °F
Dew Point 32 °F
Humidity 56%
Rainfall 0.00 in
Snow Depth Not available.
7:11 AM 5:38 PM
Waning Crescent, 3% visible
METAR KAIZ 070135Z AUTO 22005KT 10SM CLR 07/M03 A3020 RMK AO1

10-Day Weather Forecast

Almanac

Astronomy

Feb. 06, 2016 Rise Set
Actual Time
Civil Twilight
Nautical Twilight
Astronomical Twilight
Moon
Length of Visible Light
Length of Day
Tomorrow will be .
, % of the Moon is Illuminated

Today's Extremes

State Highs State Lows

Community

WunderPhotos

Upload Photos

1,891,123 photos uploaded!

WunderBlog® & News

Nearby

Air Quality

  Air Quality AQ Index Pollutant
Not available.

Snow Depth

Station Depth Elevation

Earthquake Activity

City Distance Mag. Time & Date
Minimum magnitude displayed is 2.5.

Coastal Water Temperatures

Place Temperature

Stations

Nearby Weather Stations

Station Location Temp. Windchill Dew Point Humidity Wind Precip. Elev Updated Type
                   

Watches & Warnings

There are currently no watches in effect.